HISTORICAL SENSOR DATA

Sensor Data Report

DB LIVE
CURRENT TIME--:--:--
DEVICE NETWORK Gateway Status
13 ESP · realtime ~1s · history 60s
Weather WS-MOD-01
ONLINE
Actuator ACT-MOD-01
OFFLINE
Mainboard L3 MB-L3-01
ONLINE
Mainboard L5 MB-L5-01
ONLINE
Remote AC AC-REMOTE-01
ONLINE
PZEM L3-01 PWR-L3-01
OFFLINE
PZEM L3-02 PWR-L3-02
OFFLINE
PZEM L3-03 PWR-L3-03
OFFLINE
PZEM L3-04 PWR-L3-04
OFFLINE
PZEM L5-01 PWR-L5-01
ONLINE
PZEM L5-02 PWR-L5-02
ONLINE
PZEM L5-03 PWR-L5-03
OFFLINE
PZEM L5-04 PWR-L5-04
OFFLINE
REPORT FILTER

Periode & Sensor

DATABASE HISTORY
RESET
QUICK RANGE Hari ini 7 hari 30 hari
PERIODE07 Sep 2026sampai 07 Sep 2026
TOTAL DATA23,408sensor readings
MINIMUM0.00sesuai filter
AVERAGE34.76sesuai filter
MAXIMUM912.00sesuai filter
REPORT RESULT

Data Sensor

07/09/2026 — 07/09/2026 EXPORT CSV
NOTANGGALWAKTUDEVICECHANNELSENSORVALUEUNIT
601 07/09/2026 05:38:00 PWR-L5-02Power Meter L5 PZEM 02 PZEM-L5-02-POWER PZEM L5-02 Active Power 0.00 W
602 07/09/2026 05:38:00 AC-REMOTE-01Remote AC AC-SETPOINT AC Set Temperature 23.00 °C
603 07/09/2026 05:38:00 MB-L5-01Mainboard Lantai 5 L5-ST-01 Surface Temperature 1 22.30 °C
604 07/09/2026 05:38:00 WS-MOD-01Weather Station Module WS-TEMP Suhu Udara 18.00 °C
605 07/09/2026 05:38:00 MB-L3-01Mainboard Lantai 3 L3-LUX-04 Illuminance / LUX 4 2.20 lux
606 07/09/2026 05:38:00 MB-L5-01Mainboard Lantai 5 L5-AI-04 Analog Input 4 3.05 V
607 07/09/2026 05:37:00 MB-L5-01Mainboard Lantai 5 L5-SHT-03-RH SHT20 3 Humidity 47.20 %RH
608 07/09/2026 05:37:00 MB-L3-01Mainboard Lantai 3 L3-LUX-01 Illuminance / LUX 1 1.80 lux
609 07/09/2026 05:37:00 MB-L5-01Mainboard Lantai 5 L5-AI-01 Analog Input 1 3.05 V
610 07/09/2026 05:37:00 PWR-L5-01Power Meter L5 PZEM 01 PZEM-L5-01-FREQ PZEM L5-01 Frequency 50.00 Hz
611 07/09/2026 05:37:00 MB-L5-01Mainboard Lantai 5 L5-LUX-01 Illuminance / LUX 1 2.00 lux
612 07/09/2026 05:37:00 MB-L3-01Mainboard Lantai 3 L3-AI-04 Analog Input 4 3.12 V
613 07/09/2026 05:37:00 MB-L5-01Mainboard Lantai 5 L5-SHT-03-T SHT20 3 Temperature 28.00 °C
614 07/09/2026 05:37:00 MB-L3-01Mainboard Lantai 3 L3-LUX-06 Illuminance / LUX 6 5.80 lux
615 07/09/2026 05:37:00 MB-L3-01Mainboard Lantai 3 L3-RAD-02 Radiation 2 1.00 W/m²
616 07/09/2026 05:37:00 MB-L3-01Mainboard Lantai 3 L3-AI-03 Analog Input 3 3.12 V
617 07/09/2026 05:37:00 PWR-L5-01Power Meter L5 PZEM 01 PZEM-L5-01-ENERGY PZEM L5-01 Energy 0.12 kWh
618 07/09/2026 05:37:00 MB-L5-01Mainboard Lantai 5 L5-BGT-03 Black Globe Temperature 3 25.60 °C
619 07/09/2026 05:37:00 MB-L5-01Mainboard Lantai 5 L5-SHT-02-RH SHT20 2 Humidity 46.70 %RH
620 07/09/2026 05:37:00 MB-L3-01Mainboard Lantai 3 L3-LUX-05 Illuminance / LUX 5 9.60 lux
621 07/09/2026 05:37:00 MB-L3-01Mainboard Lantai 3 L3-RAD-01 Radiation 1 1.00 W/m²
622 07/09/2026 05:37:00 MB-L3-01Mainboard Lantai 3 L3-AI-02 Analog Input 2 3.12 V
623 07/09/2026 05:37:00 PWR-L5-01Power Meter L5 PZEM 01 PZEM-L5-01-POWER PZEM L5-01 Active Power 10.20 W
624 07/09/2026 05:37:00 MB-L5-01Mainboard Lantai 5 L5-BGT-02 Black Globe Temperature 2 25.80 °C
625 07/09/2026 05:37:00 MB-L5-01Mainboard Lantai 5 L5-SHT-02-T SHT20 2 Temperature 28.10 °C
626 07/09/2026 05:37:00 MB-L3-01Mainboard Lantai 3 L3-SHT-03-RH SHT20 3 Humidity 46.40 %RH
627 07/09/2026 05:37:00 MB-L3-01Mainboard Lantai 3 L3-AI-01 Analog Input 1 3.12 V
628 07/09/2026 05:37:00 PWR-L5-01Power Meter L5 PZEM 01 PZEM-L5-01-CURR PZEM L5-01 Current 0.12 A
629 07/09/2026 05:37:00 MB-L5-01Mainboard Lantai 5 L5-BGT-01 Black Globe Temperature 1 25.90 °C
630 07/09/2026 05:37:00 MB-L5-01Mainboard Lantai 5 L5-SHT-01-RH SHT20 1 Humidity 47.70 %RH
631 07/09/2026 05:37:00 PWR-L5-02Power Meter L5 PZEM 02 PZEM-L5-02-PF PZEM L5-02 Power Factor 0.00
632 07/09/2026 05:37:00 MB-L3-01Mainboard Lantai 3 L3-SHT-03-T SHT20 3 Temperature 28.20 °C
633 07/09/2026 05:37:00 WS-MOD-01Weather Station Module WS-DIR Arah Angin 99.40 °
634 07/09/2026 05:37:00 PWR-L5-01Power Meter L5 PZEM 01 PZEM-L5-01-VOLT PZEM L5-01 Voltage 224.10 V
635 07/09/2026 05:37:00 MB-L5-01Mainboard Lantai 5 L5-HFT-02 Heat Flow Temperature 2 21.30 °C
636 07/09/2026 05:37:00 MB-L5-01Mainboard Lantai 5 L5-SHT-01-T SHT20 1 Temperature 27.80 °C
637 07/09/2026 05:37:00 MB-L3-01Mainboard Lantai 3 L3-SHT-02-RH SHT20 2 Humidity 46.60 %RH
638 07/09/2026 05:37:00 PWR-L5-02Power Meter L5 PZEM 02 PZEM-L5-02-FREQ PZEM L5-02 Frequency 50.00 Hz
639 07/09/2026 05:37:00 WS-MOD-01Weather Station Module WS-PRES Tekanan Udara 911.00 hPa
640 07/09/2026 05:37:00 AC-REMOTE-01Remote AC AC-FAN AC Fan Speed 0.00 code
641 07/09/2026 05:37:00 MB-L5-01Mainboard Lantai 5 L5-HFT-01 Heat Flow Temperature 1 22.20 °C
642 07/09/2026 05:37:00 MB-L5-01Mainboard Lantai 5 L5-AI-06 Analog Input 6 3.05 V
643 07/09/2026 05:37:00 MB-L3-01Mainboard Lantai 3 L3-SHT-02-T SHT20 2 Temperature 28.10 °C
644 07/09/2026 05:37:00 PWR-L5-02Power Meter L5 PZEM 02 PZEM-L5-02-ENERGY PZEM L5-02 Energy 0.04 kWh
645 07/09/2026 05:37:00 WS-MOD-01Weather Station Module WS-RH Kelembapan Udara 82.20 %RH
646 07/09/2026 05:37:00 AC-REMOTE-01Remote AC AC-MODE AC Operating Mode 1.00 code
647 07/09/2026 05:37:00 MB-L5-01Mainboard Lantai 5 L5-ST-02 Surface Temperature 2 21.50 °C
648 07/09/2026 05:37:00 MB-L5-01Mainboard Lantai 5 L5-AI-05 Analog Input 5 3.05 V
649 07/09/2026 05:37:00 MB-L3-01Mainboard Lantai 3 L3-SHT-01-RH SHT20 1 Humidity 47.50 %RH
650 07/09/2026 05:37:00 PWR-L5-02Power Meter L5 PZEM 02 PZEM-L5-02-POWER PZEM L5-02 Active Power 0.00 W
651 07/09/2026 05:37:00 AC-REMOTE-01Remote AC AC-SETPOINT AC Set Temperature 23.00 °C
652 07/09/2026 05:37:00 MB-L5-01Mainboard Lantai 5 L5-ST-01 Surface Temperature 1 22.30 °C
653 07/09/2026 05:37:00 WS-MOD-01Weather Station Module WS-TEMP Suhu Udara 18.00 °C
654 07/09/2026 05:37:00 MB-L3-01Mainboard Lantai 3 L3-LUX-04 Illuminance / LUX 4 1.70 lux
655 07/09/2026 05:37:00 MB-L5-01Mainboard Lantai 5 L5-AI-04 Analog Input 4 3.05 V
656 07/09/2026 05:37:00 PWR-L5-02Power Meter L5 PZEM 02 PZEM-L5-02-CURR PZEM L5-02 Current 0.00 A
657 07/09/2026 05:37:00 MB-L5-01Mainboard Lantai 5 L5-LUX-04 Illuminance / LUX 4 1.90 lux
658 07/09/2026 05:37:00 MB-L3-01Mainboard Lantai 3 L3-SHT-01-T SHT20 1 Temperature 27.70 °C
659 07/09/2026 05:37:00 WS-MOD-01Weather Station Module WS-WIND Kecepatan Angin 7.07 m/s
660 07/09/2026 05:37:00 AC-REMOTE-01Remote AC AC-POWER AC Power State 1.00 state
661 07/09/2026 05:37:00 MB-L5-01Mainboard Lantai 5 L5-RAD-02 Radiation 2 1.00 W/m²
662 07/09/2026 05:37:00 MB-L5-01Mainboard Lantai 5 L5-AI-03 Analog Input 3 3.05 V
663 07/09/2026 05:37:00 MB-L3-01Mainboard Lantai 3 L3-LUX-03 Illuminance / LUX 3 3.20 lux
664 07/09/2026 05:37:00 MB-L3-01Mainboard Lantai 3 L3-AI-06 Analog Input 6 3.12 V
665 07/09/2026 05:37:00 PWR-L5-02Power Meter L5 PZEM 02 PZEM-L5-02-VOLT PZEM L5-02 Voltage 224.00 V
666 07/09/2026 05:37:00 MB-L5-01Mainboard Lantai 5 L5-LUX-03 Illuminance / LUX 3 3.20 lux
667 07/09/2026 05:37:00 MB-L5-01Mainboard Lantai 5 L5-LUX-06 Illuminance / LUX 6 3.20 lux
668 07/09/2026 05:37:00 MB-L5-01Mainboard Lantai 5 L5-RAD-01 Radiation 1 1.00 W/m²
669 07/09/2026 05:37:00 MB-L5-01Mainboard Lantai 5 L5-AI-02 Analog Input 2 3.05 V
670 07/09/2026 05:37:00 MB-L3-01Mainboard Lantai 3 L3-LUX-02 Illuminance / LUX 2 2.90 lux
671 07/09/2026 05:37:00 MB-L3-01Mainboard Lantai 3 L3-AI-05 Analog Input 5 3.12 V
672 07/09/2026 05:37:00 PWR-L5-01Power Meter L5 PZEM 01 PZEM-L5-01-PF PZEM L5-01 Power Factor 0.39
673 07/09/2026 05:37:00 MB-L5-01Mainboard Lantai 5 L5-LUX-02 Illuminance / LUX 2 10.10 lux
674 07/09/2026 05:36:00 MB-L3-01Mainboard Lantai 3 L3-LUX-05 Illuminance / LUX 5 7.50 lux
675 07/09/2026 05:36:00 MB-L3-01Mainboard Lantai 3 L3-RAD-01 Radiation 1 1.00 W/m²
676 07/09/2026 05:36:00 MB-L3-01Mainboard Lantai 3 L3-AI-02 Analog Input 2 3.12 V
677 07/09/2026 05:36:00 PWR-L5-01Power Meter L5 PZEM 01 PZEM-L5-01-POWER PZEM L5-01 Active Power 10.50 W
678 07/09/2026 05:36:00 MB-L5-01Mainboard Lantai 5 L5-BGT-02 Black Globe Temperature 2 25.90 °C
679 07/09/2026 05:36:00 MB-L5-01Mainboard Lantai 5 L5-SHT-02-T SHT20 2 Temperature 28.10 °C
680 07/09/2026 05:36:00 MB-L3-01Mainboard Lantai 3 L3-SHT-03-RH SHT20 3 Humidity 46.40 %RH
681 07/09/2026 05:36:00 MB-L3-01Mainboard Lantai 3 L3-AI-01 Analog Input 1 3.12 V
682 07/09/2026 05:36:00 PWR-L5-01Power Meter L5 PZEM 01 PZEM-L5-01-CURR PZEM L5-01 Current 0.12 A
683 07/09/2026 05:36:00 MB-L5-01Mainboard Lantai 5 L5-BGT-01 Black Globe Temperature 1 25.80 °C
684 07/09/2026 05:36:00 MB-L5-01Mainboard Lantai 5 L5-SHT-01-RH SHT20 1 Humidity 47.70 %RH
685 07/09/2026 05:36:00 PWR-L5-02Power Meter L5 PZEM 02 PZEM-L5-02-PF PZEM L5-02 Power Factor 0.00
686 07/09/2026 05:36:00 MB-L3-01Mainboard Lantai 3 L3-SHT-03-T SHT20 3 Temperature 28.20 °C
687 07/09/2026 05:36:00 WS-MOD-01Weather Station Module WS-DIR Arah Angin 28.20 °
688 07/09/2026 05:36:00 PWR-L5-01Power Meter L5 PZEM 01 PZEM-L5-01-VOLT PZEM L5-01 Voltage 224.10 V
689 07/09/2026 05:36:00 MB-L5-01Mainboard Lantai 5 L5-HFT-02 Heat Flow Temperature 2 21.30 °C
690 07/09/2026 05:36:00 MB-L5-01Mainboard Lantai 5 L5-SHT-01-T SHT20 1 Temperature 27.70 °C
691 07/09/2026 05:36:00 MB-L3-01Mainboard Lantai 3 L3-SHT-02-RH SHT20 2 Humidity 46.70 %RH
692 07/09/2026 05:36:00 PWR-L5-02Power Meter L5 PZEM 02 PZEM-L5-02-FREQ PZEM L5-02 Frequency 50.00 Hz
693 07/09/2026 05:36:00 MB-L5-01Mainboard Lantai 5 L5-LUX-05 Illuminance / LUX 5 5.10 lux
694 07/09/2026 05:36:00 WS-MOD-01Weather Station Module WS-PRES Tekanan Udara 911.00 hPa
695 07/09/2026 05:36:00 AC-REMOTE-01Remote AC AC-FAN AC Fan Speed 0.00 code
696 07/09/2026 05:36:00 MB-L5-01Mainboard Lantai 5 L5-HFT-01 Heat Flow Temperature 1 22.10 °C
697 07/09/2026 05:36:00 MB-L5-01Mainboard Lantai 5 L5-AI-06 Analog Input 6 3.05 V
698 07/09/2026 05:36:00 MB-L3-01Mainboard Lantai 3 L3-SHT-02-T SHT20 2 Temperature 28.00 °C
699 07/09/2026 05:36:00 PWR-L5-02Power Meter L5 PZEM 02 PZEM-L5-02-ENERGY PZEM L5-02 Energy 0.04 kWh
700 07/09/2026 05:36:00 WS-MOD-01Weather Station Module WS-RH Kelembapan Udara 82.20 %RH
Menampilkan maksimal 100 data per halaman